createdAt,value
2023-03-24T00:05:43.568Z,9.61
2023-03-24T00:09:43.164Z,9.60
2023-03-24T00:14:12.460Z,9.59
2023-03-24T00:18:43.327Z,9.59
2023-03-24T00:23:12.177Z,9.60
2023-03-24T00:39:48.816Z,9.70
2023-03-24T00:44:10.804Z,9.70
2023-03-24T00:48:40.956Z,9.71
2023-03-24T01:15:31.510Z,9.70
2023-03-24T01:20:00.882Z,9.64
2023-03-24T01:24:30.296Z,9.60
2023-03-24T01:28:40.899Z,9.55
2023-03-24T01:32:43.375Z,9.54
2023-03-24T01:54:23.859Z,9.65
2023-03-24T01:58:28.537Z,9.69
2023-03-24T02:02:56.265Z,9.71
2023-03-24T02:34:43.827Z,9.75
2023-03-24T02:39:24.139Z,9.71
2023-03-24T02:57:02.591Z,9.70
2023-03-24T03:01:44.148Z,9.68
2023-03-24T03:06:30.655Z,9.68
2023-03-24T03:19:49.131Z,9.73
2023-03-24T03:24:20.100Z,9.72
2023-03-24T03:28:39.978Z,9.72
2023-03-24T03:32:57.973Z,9.72
2023-03-24T03:37:36.066Z,9.73
2023-03-24T03:41:54.824Z,9.72
2023-03-24T04:03:27.210Z,9.80
2023-03-24T04:08:04.299Z,9.79
2023-03-24T04:12:32.079Z,9.78
2023-03-24T04:34:56.466Z,9.90
2023-03-24T04:39:21.451Z,9.91
2023-03-24T04:43:39.523Z,9.92
2023-03-24T04:48:09.696Z,9.94
2023-03-24T04:52:32.819Z,9.95
2023-03-24T05:13:28.660Z,10.01
2023-03-24T05:17:57.906Z,10.01
2023-03-24T05:22:04.649Z,10.00
2023-03-24T05:25:51.097Z,10.01
2023-03-24T05:29:10.154Z,10.03
2023-03-24T05:32:24.314Z,10.03
2023-03-24T05:36:13.706Z,10.03
2023-03-24T07:05:55.126Z,11.64
2023-03-24T07:22:34.652Z,12.08
2023-03-24T07:27:02.505Z,12.22
2023-03-24T08:04:02.934Z,13.18
2023-03-24T08:08:31.351Z,13.20
2023-03-24T08:12:26.613Z,13.25
2023-03-24T08:16:46.504Z,13.28
2023-03-24T08:21:06.633Z,13.43
2023-03-24T10:00:19.596Z,13.98
2023-03-24T10:04:48.916Z,14.02
2023-03-24T10:09:36.137Z,13.99
2023-03-24T10:13:57.780Z,13.97
2023-03-24T10:18:51.347Z,13.99
2023-03-24T10:23:13.282Z,13.95
2023-03-24T10:27:43.860Z,13.92
2023-03-24T10:31:52.092Z,13.92
2023-03-24T10:36:35.988Z,13.99
2023-03-24T10:41:08.162Z,14.02
2023-03-24T11:19:08.293Z,15.40
2023-03-24T11:23:37.674Z,15.46
2023-03-24T11:27:56.734Z,15.62
2023-03-24T11:32:35.606Z,15.98
2023-03-24T11:36:49.734Z,16.39
2023-03-24T12:35:29.421Z,18.45
2023-03-24T12:39:50.824Z,18.95
2023-03-24T12:44:10.380Z,19.14
2023-03-24T12:48:36.473Z,19.05
2023-03-24T12:57:13.231Z,18.87
2023-03-24T13:30:21.450Z,18.98
2023-03-24T14:08:32.993Z,17.17
2023-03-24T14:12:27.394Z,16.99
2023-03-24T14:16:20.182Z,16.79
2023-03-24T14:20:55.824Z,16.69
2023-03-24T14:25:24.960Z,16.67
2023-03-24T14:29:50.138Z,16.66
2023-03-24T14:33:40.473Z,16.62
2023-03-24T14:37:49.009Z,16.50
2023-03-24T14:46:51.294Z,16.22
2023-03-24T14:51:03.850Z,16.15
2023-03-24T14:55:39.215Z,16.04
2023-03-24T14:59:57.135Z,15.90
2023-03-24T15:04:24.765Z,15.79
2023-03-24T15:29:36.423Z,15.16
2023-03-24T15:33:49.908Z,15.09
2023-03-24T15:38:10.512Z,15.04
2023-03-24T15:42:13.734Z,15.07
2023-03-24T15:46:12.968Z,15.26
2023-03-24T15:50:24.498Z,15.41
2023-03-24T15:54:37.728Z,15.62
2023-03-24T15:58:54.715Z,15.82
2023-03-24T18:06:06.470Z,12.66
2023-03-24T18:10:35.671Z,12.55
2023-03-24T18:14:40.329Z,12.48
2023-03-24T18:19:09.040Z,12.40
2023-03-24T18:23:26.815Z,12.31
2023-03-24T18:49:30.101Z,11.85
2023-03-24T18:54:01.189Z,11.75
2023-03-24T18:58:11.066Z,11.64
2023-03-24T19:02:29.810Z,11.55
2023-03-24T19:07:00.452Z,11.45
2023-03-24T19:28:48.847Z,10.93
2023-03-24T19:33:10.262Z,10.80
2023-03-24T19:37:25.562Z,10.68
2023-03-24T19:41:39.378Z,10.59
2023-03-24T20:05:55.183Z,10.03
2023-03-24T20:10:14.938Z,9.90
2023-03-24T20:14:01.626Z,9.79
2023-03-24T20:18:23.237Z,9.71
2023-03-24T20:22:39.839Z,9.68
2023-03-24T20:27:04.036Z,9.66
2023-03-24T20:30:49.404Z,9.66
2023-03-24T22:01:15.884Z,9.17
2023-03-24T22:05:44.718Z,9.12
2023-03-24T22:10:06.559Z,9.07
2023-03-24T22:14:24.060Z,9.05
2023-03-24T22:18:53.390Z,9.02
2023-03-24T22:53:30.563Z,8.94
2023-03-24T22:57:59.980Z,8.88
2023-03-24T23:02:29.890Z,8.81
2023-03-24T23:34:01.710Z,8.38
2023-03-24T23:38:31.830Z,8.33
